»·PEaware :: N647WT KSAN-KLAS

N647WT :: KSAN-KLAS

FLIGHT INFORMATION

Flight Status: Arrived
Operator: Privately registered:
United States
More flights under this callsign
Pilot: Anonymous 16342 (16342)
Aircraft: ECLIPSE 500
(EA50)
More flights by this aircraft type
Origin: KSAN San Diego Intl-Lindbergh
United States
Destination: KLAS McCarran Intl
United States
More flights between these airports :: More routes between these airports
Route: PADRZ2 CHKNN SEBBY YELAH MISEN KEPEC6
File this flight plan on PilotEdge
Remarks:
Altitude:
(Current/Filed)
29,000ft
Speed:
(Current/Filed)
345kts
Departed: 22-Aug-18 08:54 AM
Arrived: 22-Aug-18 09:58 AM
Distance/Time
Traveled:
224nm/1:04
Distance/Time
To Go:
Arrived

Flight Plot

Page will automatically refresh every two minutes.

Flight plan parsing failed; only flown route is shown


Map Options




Map Legend


Flown Route
Filed Route
Departure Airport
Arrival Airport
Navaid (VOR, NDB)
Fix

Horizontal Profiles

Position Reports

Time Latitude Longitude Heading Altitude Ground
Speed
22-Aug-18 08:36 32.731979 -117.191212 295 19ft 0kts
22-Aug-18 08:37 32.731979 -117.191212 295 19ft 0kts
22-Aug-18 08:38 32.731979 -117.191212 295 19ft 0kts
22-Aug-18 08:39 32.731979 -117.191212 295 19ft 0kts
22-Aug-18 08:40 32.731979 -117.191212 295 19ft 0kts
22-Aug-18 08:41 32.731979 -117.191212 295 19ft 0kts
22-Aug-18 08:42 32.731979 -117.191212 295 19ft 0kts
22-Aug-18 08:43 32.731979 -117.191212 295 19ft 0kts
22-Aug-18 08:44 32.731979 -117.191212 295 19ft 0kts
22-Aug-18 08:45 32.731979 -117.191212 295 19ft 0kts
22-Aug-18 08:46 32.731979 -117.191212 295 19ft 0kts
22-Aug-18 08:47 32.731979 -117.191212 295 19ft 0kts
22-Aug-18 08:48 32.732002 -117.191225 350 19ft 0kts
22-Aug-18 08:49 32.732277 -117.190609 59 18ft 4kts
22-Aug-18 08:50 32.732336 -117.190541 30 18ft 0kts
22-Aug-18 08:51 32.732295 -117.188712 106 18ft 15kts
22-Aug-18 08:52 32.730948 -117.183202 106 16ft 19kts
22-Aug-18 08:53 32.729908 -117.178889 106 16ft 14kts
22-Aug-18 08:54 32.729584 -117.176451 68 17ft 7kts
22-Aug-18 08:55 32.736243 -117.197367 293 304ft 137kts
22-Aug-18 08:56 32.755138 -117.237019 302 1602ft 141kts
22-Aug-18 08:57 32.777152 -117.277535 302 3296ft 173kts
22-Aug-18 08:58 32.806295 -117.328312 306 6389ft 200kts
22-Aug-18 08:59 32.844025 -117.387074 306 8822ft 240kts
22-Aug-18 09:00 32.885453 -117.451484 306 11410ft 252kts
22-Aug-18 09:01 32.928977 -117.519151 305 13738ft 263kts
22-Aug-18 09:02 32.974021 -117.589333 305 15971ft 273kts
22-Aug-18 09:03 33.019961 -117.661045 303 18019ft 280kts
22-Aug-18 09:04 33.069358 -117.733581 314 19891ft 290kts
22-Aug-18 09:05 33.117972 -117.783955 314 21246ft 294kts
22-Aug-18 09:06 33.178826 -117.846355 313 22672ft 300kts
22-Aug-18 09:07 33.243415 -117.910038 314 23985ft 307kts
22-Aug-18 09:08 33.308327 -117.973509 314 25135ft 313kts
22-Aug-18 09:09 33.373498 -118.037295 314 26171ft 318kts
22-Aug-18 09:10 33.441968 -118.104426 314 27134ft 323kts
22-Aug-18 09:11 33.511251 -118.172495 313 28012ft 328kts
22-Aug-18 09:12 33.584208 -118.238845 327 28805ft 342kts
22-Aug-18 09:13 33.671438 -118.288372 328 29099ft 359kts
22-Aug-18 09:14 33.765634 -118.296208 34 29094ft 407kts
22-Aug-18 09:15 33.813386 -118.235726 51 29097ft 414kts
22-Aug-18 09:16 33.879203 -118.132001 55 29089ft 414kts
22-Aug-18 09:17 33.944583 -118.022916 55 29087ft 414kts
22-Aug-18 09:18 34.009959 -117.912413 55 29101ft 414kts
22-Aug-18 09:19 34.075960 -117.800317 55 29120ft 414kts
22-Aug-18 09:20 34.143701 -117.698387 51 29111ft 415kts
22-Aug-18 09:21 34.216725 -117.591335 51 29115ft 415kts
22-Aug-18 09:22 34.289762 -117.484111 51 29126ft 414kts
22-Aug-18 09:23 34.362534 -117.376984 51 29144ft 414kts
22-Aug-18 09:24 34.432488 -117.273710 51 29141ft 413kts
22-Aug-18 09:25 34.505275 -117.165922 51 29140ft 414kts
22-Aug-18 09:26 34.576984 -117.059416 51 29145ft 413kts
22-Aug-18 09:27 34.649152 -116.951902 51 29121ft 413kts
22-Aug-18 09:28 34.720526 -116.845246 51 29103ft 412kts
22-Aug-18 09:29 34.791686 -116.738592 51 29102ft 405kts
22-Aug-18 09:30 34.858051 -116.642949 39 29106ft 355kts
22-Aug-18 09:31 34.929470 -116.572213 37 28050ft 313kts
22-Aug-18 09:32 34.995816 -116.507504 37 26289ft 309kts
22-Aug-18 09:33 35.063399 -116.441737 36 24562ft 319kts
22-Aug-18 09:34 35.124148 -116.375744 44 24129ft 303kts
22-Aug-18 09:35 35.182053 -116.303892 45 23506ft 323kts
22-Aug-18 09:36 35.249081 -116.219977 45 21842ft 364kts
22-Aug-18 09:37 35.321295 -116.129171 45 20032ft 378kts
22-Aug-18 09:38 35.393331 -116.038311 45 18216ft 358kts
22-Aug-18 09:39 35.459905 -115.954114 45 16451ft 352kts
22-Aug-18 09:40 35.527342 -115.868603 46 14660ft 349kts
22-Aug-18 09:41 35.591652 -115.786854 46 13085ft 340kts
22-Aug-18 09:42 35.654884 -115.706277 46 13039ft 333kts
22-Aug-18 09:43 35.718974 -115.624412 46 13039ft 334kts
22-Aug-18 09:44 35.798981 -115.578037 3 13040ft 329kts
22-Aug-18 09:45 35.889740 -115.569291 0 13031ft 328kts
22-Aug-18 09:46 35.969314 -115.534367 59 12751ft 308kts
22-Aug-18 09:47 36.007004 -115.441571 67 11661ft 301kts
22-Aug-18 09:48 36.026224 -115.351825 95 11014ft 284kts
22-Aug-18 09:49 36.022404 -115.270909 98 10340ft 259kts
22-Aug-18 09:50 36.017677 -115.195910 98 9074ft 254kts
22-Aug-18 09:51 36.012906 -115.121902 98 8135ft 243kts
22-Aug-18 09:52 36.008591 -115.049267 98 7100ft 186kts
22-Aug-18 09:53 36.009984 -114.987865 54 5304ft 187kts
22-Aug-18 09:54 36.055526 -114.995459 334 4052ft 171kts
22-Aug-18 09:55 36.074499 -115.036867 263 3568ft 150kts
22-Aug-18 09:56 36.073750 -115.076577 265 2943ft 125kts
22-Aug-18 09:57 36.073660 -115.119402 265 2275ft 102kts
22-Aug-18 09:58 36.073600 -115.143556 272 2117ft 55kts
22-Aug-18 09:59 36.074661 -115.150398 297 2117ft 0kts
22-Aug-18 10:00 36.075556 -115.151477 332 2117ft 6kts
22-Aug-18 10:01 36.078041 -115.157794 267 2117ft 22kts
22-Aug-18 10:02 36.077987 -115.163187 264 2117ft 17kts
22-Aug-18 10:03 36.078026 -115.166640 268 2117ft 25kts
22-Aug-18 10:04 36.079645 -115.170285 26 2117ft 13kts
22-Aug-18 10:05 36.081117 -115.170509 117 2117ft 1kts

Navigation Log

Ident Type
Flight plan parsing failed, navigation log unavailable